createdAt,value
2023-03-06T00:00:36.526Z,63.40
2023-03-06T00:03:03.889Z,63.40
2023-03-06T00:05:30.865Z,63.60
2023-03-06T00:07:57.730Z,63.70
2023-03-06T00:10:30.517Z,63.20
2023-03-06T00:13:03.142Z,63.10
2023-03-06T00:15:30.752Z,63.30
2023-03-06T00:17:57.779Z,63.10
2023-03-06T00:20:26.224Z,63.30
2023-03-06T00:22:55.394Z,63.10
2023-03-06T00:25:22.427Z,62.90
2023-03-06T00:27:50.213Z,62.90
2023-03-06T00:30:20.902Z,63.30
2023-03-06T00:32:47.978Z,63.10
2023-03-06T00:35:15.563Z,63.00
2023-03-06T00:37:42.940Z,63.30
2023-03-06T00:40:17.462Z,63.00
2023-03-06T00:42:44.620Z,63.10
2023-03-06T00:45:12.219Z,63.40
2023-03-06T00:47:39.384Z,63.10
2023-03-06T00:50:06.592Z,63.30
2023-03-06T00:52:33.500Z,63.30
2023-03-06T00:55:00.392Z,63.60
2023-03-06T00:57:27.211Z,63.50
2023-03-06T00:59:54.094Z,63.40
2023-03-06T01:02:21.113Z,63.00
2023-03-06T01:04:48.038Z,63.20
2023-03-06T01:07:14.813Z,63.40
2023-03-06T01:09:41.954Z,63.40
2023-03-06T01:12:09.605Z,63.30
2023-03-06T01:14:36.459Z,63.10
2023-03-06T01:17:03.676Z,63.20
2023-03-06T01:19:30.558Z,63.10
2023-03-06T01:21:57.599Z,63.10
2023-03-06T01:24:25.876Z,63.20
2023-03-06T01:26:52.912Z,63.50
2023-03-06T01:29:20.541Z,63.20
2023-03-06T01:31:47.637Z,63.40
2023-03-06T01:34:14.573Z,63.30
2023-03-06T01:36:41.461Z,63.40
2023-03-06T01:39:08.322Z,63.60
2023-03-06T01:41:35.269Z,63.80
2023-03-06T01:44:02.615Z,64.20
2023-03-06T01:46:30.043Z,65.10
2023-03-06T01:49:09.342Z,65.40
2023-03-06T01:51:44.988Z,65.40
2023-03-06T01:54:23.887Z,66.10
2023-03-06T01:56:54.178Z,66.60
2023-03-06T01:59:21.901Z,67.20
2023-03-06T02:01:49.599Z,67.70
2023-03-06T02:04:17.992Z,67.50
2023-03-06T02:06:45.002Z,68.00
2023-03-06T02:09:12.921Z,68.20
2023-03-06T02:11:43.959Z,68.30
2023-03-06T02:14:16.958Z,70.00
2023-03-06T02:16:44.041Z,70.20
2023-03-06T02:20:03.485Z,70.50
2023-03-06T02:23:09.463Z,68.80
2023-03-06T02:25:43.029Z,69.00
2023-03-06T02:28:12.778Z,71.10
2023-03-06T02:30:40.486Z,71.20
2023-03-06T02:33:07.807Z,71.10
2023-03-06T02:35:38.503Z,71.40
2023-03-06T02:38:10.577Z,71.50
2023-03-06T02:40:37.486Z,71.40
2023-03-06T02:43:05.143Z,71.60
2023-03-06T02:45:47.131Z,71.60
2023-03-06T02:48:15.261Z,71.00
2023-03-06T02:50:43.142Z,71.40
2023-03-06T02:53:12.263Z,71.70
2023-03-06T02:55:39.749Z,71.70
2023-03-06T02:58:07.243Z,72.10
2023-03-06T03:00:34.781Z,71.90
2023-03-06T03:03:02.412Z,71.90
2023-03-06T03:05:29.293Z,72.20
2023-03-06T03:07:56.125Z,72.40
2023-03-06T03:10:22.951Z,72.50
2023-03-06T03:12:50.107Z,72.70
2023-03-06T03:15:17.434Z,72.90
2023-03-06T03:17:44.233Z,72.50
2023-03-06T03:20:14.919Z,72.60
2023-03-06T03:22:41.949Z,72.60
2023-03-06T03:25:09.866Z,72.60
2023-03-06T03:27:36.597Z,72.60
2023-03-06T03:30:04.550Z,72.60
2023-03-06T03:32:31.417Z,72.60
2023-03-06T03:34:58.519Z,72.90
2023-03-06T03:37:25.334Z,72.80
2023-03-06T03:39:52.209Z,73.20
2023-03-06T03:42:18.962Z,73.50
2023-03-06T03:44:45.787Z,73.50
2023-03-06T03:47:12.630Z,73.60
2023-03-06T03:49:39.491Z,73.50
2023-03-06T03:52:06.487Z,74.20
2023-03-06T03:54:33.460Z,74.10
2023-03-06T03:57:00.334Z,74.50
2023-03-06T03:59:27.230Z,74.60
2023-03-06T04:01:56.017Z,75.00
2023-03-06T04:04:23.041Z,75.30
2023-03-06T04:06:49.839Z,75.30
2023-03-06T04:09:16.644Z,75.50
2023-03-06T04:11:43.534Z,75.40
2023-03-06T04:14:10.387Z,75.60
2023-03-06T04:16:37.438Z,76.30
2023-03-06T04:19:04.374Z,76.10
2023-03-06T04:21:31.212Z,76.20
2023-03-06T04:23:58.597Z,76.10
2023-03-06T04:26:25.568Z,76.40
2023-03-06T04:28:52.464Z,76.50
2023-03-06T04:31:19.381Z,76.60
2023-03-06T04:33:46.247Z,76.70
2023-03-06T04:36:29.644Z,76.60
2023-03-06T04:38:56.947Z,76.20
2023-03-06T04:41:24.084Z,77.10
2023-03-06T04:43:51.492Z,76.90
2023-03-06T04:46:18.766Z,77.40
2023-03-06T04:48:45.661Z,77.30
2023-03-06T04:51:13.938Z,77.40
2023-03-06T04:53:40.873Z,77.80
2023-03-06T04:56:08.137Z,77.80
2023-03-06T04:58:35.083Z,77.90
2023-03-06T05:01:02.154Z,78.00
2023-03-06T05:03:29.340Z,78.10
2023-03-06T05:05:56.293Z,78.10
2023-03-06T05:08:23.907Z,77.90
2023-03-06T05:10:56.608Z,78.40
2023-03-06T05:13:24.025Z,78.00
2023-03-06T05:15:50.930Z,78.40
2023-03-06T05:18:18.728Z,78.20
2023-03-06T05:20:45.585Z,78.40
2023-03-06T05:23:12.922Z,78.40
2023-03-06T05:25:40.875Z,78.50
2023-03-06T05:28:08.433Z,78.50
2023-03-06T05:30:35.796Z,79.00
2023-03-06T05:33:03.678Z,78.80
2023-03-06T05:35:30.733Z,78.70
2023-03-06T05:37:57.604Z,79.00
2023-03-06T05:40:24.660Z,79.10
2023-03-06T05:42:51.519Z,79.10
2023-03-06T05:45:18.508Z,79.00
2023-03-06T05:47:45.541Z,78.90
2023-03-06T05:50:14.131Z,79.10
2023-03-06T05:52:41.307Z,79.10
2023-03-06T05:55:10.074Z,79.50
2023-03-06T05:57:37.002Z,79.50
2023-03-06T06:00:04.830Z,79.50
2023-03-06T06:02:31.726Z,79.40
2023-03-06T06:04:58.670Z,79.50
2023-03-06T06:07:25.569Z,79.60
2023-03-06T06:09:53.881Z,79.60
2023-03-06T06:12:20.855Z,79.50
2023-03-06T06:14:47.729Z,79.80
2023-03-06T06:17:14.479Z,79.70
2023-03-06T06:19:42.139Z,79.60
2023-03-06T06:22:09.071Z,79.80
2023-03-06T06:24:35.978Z,79.70
2023-03-06T06:27:04.148Z,79.90
2023-03-06T06:29:31.620Z,79.90
2023-03-06T06:31:58.878Z,79.70
2023-03-06T06:34:26.359Z,79.90
2023-03-06T06:36:54.459Z,79.80
2023-03-06T06:39:23.004Z,80.00
2023-03-06T06:42:05.516Z,80.10
2023-03-06T06:44:37.808Z,79.90
2023-03-06T06:47:23.668Z,80.10
2023-03-06T06:49:52.958Z,80.10
2023-03-06T06:52:20.049Z,80.00
2023-03-06T06:54:46.975Z,80.10
2023-03-06T06:57:14.676Z,80.30
2023-03-06T06:59:41.629Z,80.30
2023-03-06T07:02:11.321Z,80.50
2023-03-06T07:04:44.278Z,80.40
2023-03-06T07:07:16.117Z,80.60
2023-03-06T07:09:42.993Z,80.70
2023-03-06T07:12:10.048Z,80.60
2023-03-06T07:14:37.360Z,80.50
2023-03-06T07:17:04.292Z,80.60
2023-03-06T07:19:31.141Z,80.40
2023-03-06T07:22:00.143Z,80.80
2023-03-06T07:24:27.414Z,80.60
2023-03-06T07:26:54.424Z,80.30
2023-03-06T07:29:21.892Z,80.30
2023-03-06T07:31:48.718Z,80.50
2023-03-06T07:34:15.674Z,80.20
2023-03-06T07:36:43.304Z,80.10
2023-03-06T07:39:10.382Z,80.30
2023-03-06T07:41:37.177Z,79.70
2023-03-06T07:44:04.050Z,79.80
2023-03-06T07:46:30.950Z,79.50
2023-03-06T07:48:58.305Z,79.60
2023-03-06T07:51:25.268Z,79.80
2023-03-06T07:53:53.365Z,79.60
2023-03-06T07:56:20.233Z,79.50
2023-03-06T07:58:48.050Z,79.60
2023-03-06T08:01:20.235Z,79.20
2023-03-06T08:03:49.091Z,79.20
2023-03-06T08:06:22.310Z,79.20
2023-03-06T08:08:50.365Z,77.80
2023-03-06T08:11:20.137Z,77.40
2023-03-06T08:13:49.123Z,77.10
2023-03-06T08:16:17.630Z,77.70
2023-03-06T08:18:46.349Z,76.90
2023-03-06T08:21:15.738Z,77.10
2023-03-06T08:23:43.084Z,76.60
2023-03-06T08:26:15.980Z,76.50
2023-03-06T08:28:43.237Z,76.20
2023-03-06T08:31:12.764Z,76.40
2023-03-06T08:33:41.002Z,76.00
2023-03-06T08:36:08.098Z,76.20
2023-03-06T08:38:34.986Z,75.90
2023-03-06T08:41:01.905Z,75.40
2023-03-06T08:43:28.760Z,75.40
2023-03-06T08:45:57.016Z,75.30
2023-03-06T08:48:23.860Z,74.80
2023-03-06T08:50:51.289Z,74.70
2023-03-06T08:53:18.986Z,74.70
2023-03-06T08:55:47.282Z,74.50
2023-03-06T08:58:14.184Z,73.80
2023-03-06T09:00:43.926Z,73.50
2023-03-06T09:03:10.842Z,73.00
2023-03-06T09:05:39.412Z,72.30
2023-03-06T09:08:06.417Z,72.30
2023-03-06T09:10:33.306Z,71.90
2023-03-06T09:13:00.298Z,72.20
2023-03-06T09:15:27.320Z,72.80
2023-03-06T09:17:54.458Z,73.30
2023-03-06T09:20:21.533Z,73.10
2023-03-06T09:22:48.684Z,72.70
2023-03-06T09:25:20.277Z,72.90
2023-03-06T09:27:55.378Z,73.10
2023-03-06T09:30:28.996Z,73.40
2023-03-06T09:32:56.695Z,73.30
2023-03-06T09:35:23.532Z,73.30
2023-03-06T09:37:50.383Z,73.50
2023-03-06T09:40:53.389Z,73.40
2023-03-06T09:43:30.811Z,73.30
2023-03-06T09:45:58.746Z,73.60
2023-03-06T09:48:48.916Z,74.00
2023-03-06T09:51:19.239Z,73.80
2023-03-06T09:54:13.451Z,73.80
2023-03-06T09:56:48.866Z,73.60
2023-03-06T09:59:21.789Z,73.50
2023-03-06T10:02:10.630Z,73.60
2023-03-06T10:04:51.686Z,73.40
2023-03-06T10:07:26.206Z,73.50
2023-03-06T10:09:58.414Z,73.60
2023-03-06T10:12:40.646Z,73.20
2023-03-06T10:15:13.947Z,72.80
2023-03-06T10:17:42.841Z,72.30
2023-03-06T10:20:18.677Z,72.20
2023-03-06T10:23:16.322Z,72.20
2023-03-06T10:26:07.956Z,72.10
2023-03-06T10:28:45.788Z,71.60
2023-03-06T10:31:34.349Z,71.70
2023-03-06T10:34:09.849Z,71.40
2023-03-06T10:36:36.675Z,72.00
2023-03-06T10:39:14.069Z,71.80
2023-03-06T10:41:41.077Z,71.80
2023-03-06T10:44:09.339Z,71.70
2023-03-06T10:46:39.368Z,71.70
2023-03-06T10:49:49.140Z,71.50
2023-03-06T10:52:15.860Z,71.00
2023-03-06T10:54:44.141Z,70.50
2023-03-06T10:57:31.262Z,70.10
2023-03-06T11:00:00.789Z,69.90
2023-03-06T11:02:41.039Z,70.00
2023-03-06T11:05:20.420Z,70.10
2023-03-06T11:08:02.083Z,70.20
2023-03-06T11:10:30.722Z,70.30
2023-03-06T11:13:00.347Z,69.90
2023-03-06T11:15:29.624Z,69.80
2023-03-06T11:18:04.542Z,69.20
2023-03-06T11:20:51.081Z,68.60
2023-03-06T11:23:45.529Z,68.50
2023-03-06T11:26:15.314Z,68.30
2023-03-06T11:29:02.460Z,66.50
2023-03-06T11:31:33.815Z,66.40
2023-03-06T11:34:18.605Z,65.60
2023-03-06T11:36:58.457Z,65.10
2023-03-06T11:39:53.323Z,65.00
2023-03-06T11:42:34.344Z,65.00
2023-03-06T11:45:19.913Z,64.80
2023-03-06T11:47:50.318Z,64.30
2023-03-06T11:50:35.935Z,64.40
2023-03-06T11:53:05.656Z,64.50
2023-03-06T11:55:53.270Z,64.20
2023-03-06T11:58:25.984Z,64.50
2023-03-06T12:01:06.438Z,64.50
2023-03-06T12:04:01.000Z,64.20
2023-03-06T12:06:54.497Z,64.30
2023-03-06T12:09:32.730Z,64.20
2023-03-06T12:12:10.958Z,65.80
2023-03-06T12:14:55.041Z,66.40
2023-03-06T12:17:40.659Z,66.70
2023-03-06T12:20:33.132Z,66.90
2023-03-06T12:23:21.253Z,67.40
2023-03-06T12:25:59.613Z,68.20
2023-03-06T12:29:06.294Z,68.60
2023-03-06T12:31:54.669Z,68.60
2023-03-06T12:34:44.773Z,68.60
2023-03-06T12:37:36.330Z,69.50
2023-03-06T12:40:06.957Z,69.10
2023-03-06T12:43:10.201Z,69.80
2023-03-06T12:45:38.075Z,69.30
2023-03-06T12:48:14.692Z,69.30
2023-03-06T12:50:44.543Z,68.60
2023-03-06T12:53:29.728Z,68.50
2023-03-06T12:55:58.321Z,68.30
2023-03-06T12:58:35.398Z,68.90
2023-03-06T13:01:08.060Z,69.50
2023-03-06T13:03:59.761Z,69.20
2023-03-06T13:06:44.964Z,68.50
2023-03-06T13:09:37.388Z,67.90
2023-03-06T13:12:15.727Z,67.70
2023-03-06T13:14:53.931Z,67.40
2023-03-06T13:17:23.997Z,66.60
2023-03-06T13:20:16.375Z,66.90
2023-03-06T13:22:45.175Z,66.20
2023-03-06T13:25:20.742Z,66.80
2023-03-06T13:27:53.445Z,66.80
2023-03-06T13:30:37.097Z,66.60
2023-03-06T13:33:25.822Z,66.70
2023-03-06T13:35:52.734Z,66.70
2023-03-06T13:38:53.372Z,66.70
2023-03-06T13:41:23.332Z,66.70
2023-03-06T13:43:52.273Z,66.40
2023-03-06T13:46:31.520Z,67.20
2023-03-06T13:49:04.323Z,67.30
2023-03-06T13:51:36.904Z,67.90
2023-03-06T13:54:28.040Z,67.80
2023-03-06T13:57:15.948Z,68.50
2023-03-06T14:00:14.461Z,69.20
2023-03-06T14:02:54.882Z,68.80
2023-03-06T14:05:24.497Z,69.10
2023-03-06T14:08:15.867Z,69.90
2023-03-06T14:10:45.721Z,69.80
2023-03-06T14:13:26.617Z,70.00
2023-03-06T14:15:56.860Z,69.90
2023-03-06T14:18:36.851Z,70.40
2023-03-06T14:21:11.948Z,70.40
2023-03-06T14:23:43.484Z,70.40
2023-03-06T14:26:22.990Z,70.40
2023-03-06T14:28:52.998Z,69.70
2023-03-06T14:31:20.923Z,69.30
2023-03-06T14:33:50.882Z,69.90
2023-03-06T14:36:20.919Z,69.80
2023-03-06T14:38:52.266Z,69.00
2023-03-06T14:41:28.740Z,68.30
2023-03-06T14:44:16.230Z,68.10
2023-03-06T14:46:44.614Z,68.10
2023-03-06T14:49:16.320Z,68.10
2023-03-06T14:51:53.124Z,68.20
2023-03-06T14:54:28.755Z,67.80
2023-03-06T14:57:02.534Z,68.00
2023-03-06T14:59:33.064Z,68.10
2023-03-06T15:02:03.734Z,67.90
2023-03-06T15:04:46.895Z,67.70
2023-03-06T15:07:25.666Z,67.90
2023-03-06T15:09:54.208Z,67.70
2023-03-06T15:12:21.216Z,67.60
2023-03-06T15:14:49.165Z,67.70
2023-03-06T15:17:19.082Z,67.70
2023-03-06T15:19:48.504Z,67.50
2023-03-06T15:22:30.344Z,67.10
2023-03-06T15:25:15.511Z,67.20
2023-03-06T15:28:04.501Z,66.70
2023-03-06T15:30:33.841Z,66.40
2023-03-06T15:33:19.182Z,66.40
2023-03-06T15:36:06.430Z,66.60
2023-03-06T15:38:38.429Z,66.30
2023-03-06T15:41:07.116Z,66.80
2023-03-06T15:43:39.501Z,67.10
2023-03-06T15:46:07.717Z,66.70
2023-03-06T15:48:35.462Z,67.60
2023-03-06T15:51:03.552Z,67.50
2023-03-06T15:53:30.819Z,67.50
2023-03-06T15:55:58.646Z,67.40
2023-03-06T15:58:29.407Z,67.50
2023-03-06T16:00:56.369Z,67.50
2023-03-06T16:03:23.245Z,67.80
2023-03-06T16:05:50.121Z,68.20
2023-03-06T16:08:17.012Z,68.30
2023-03-06T16:10:45.694Z,68.40
2023-03-06T16:13:25.251Z,68.30
2023-03-06T16:15:52.273Z,68.30
2023-03-06T16:18:19.101Z,68.70
2023-03-06T16:20:46.485Z,68.30
2023-03-06T16:23:13.414Z,68.60
2023-03-06T16:25:42.986Z,68.60
2023-03-06T16:28:15.120Z,68.50
2023-03-06T16:30:43.455Z,68.50
2023-03-06T16:33:14.031Z,68.70
2023-03-06T16:35:41.414Z,68.70
2023-03-06T16:38:09.942Z,68.70
2023-03-06T16:40:40.997Z,69.20
2023-03-06T16:43:09.210Z,69.50
2023-03-06T16:45:40.662Z,69.70
2023-03-06T16:48:13.688Z,70.30
2023-03-06T16:50:40.962Z,70.10
2023-03-06T16:53:08.132Z,70.60
2023-03-06T16:55:35.266Z,70.40
2023-03-06T16:58:02.167Z,70.30
2023-03-06T17:00:32.038Z,70.80
2023-03-06T17:03:00.714Z,70.90
2023-03-06T17:05:28.696Z,71.10
2023-03-06T17:07:56.095Z,71.50
2023-03-06T17:10:26.319Z,71.50
2023-03-06T17:12:53.654Z,73.20
2023-03-06T17:15:21.036Z,73.40
2023-03-06T17:17:48.674Z,73.40
2023-03-06T17:20:15.936Z,73.10
2023-03-06T17:22:42.824Z,73.70
2023-03-06T17:25:10.416Z,73.70
2023-03-06T17:27:38.132Z,73.40
2023-03-06T17:30:06.178Z,73.60
2023-03-06T17:32:33.539Z,74.10
2023-03-06T17:35:00.422Z,74.60
2023-03-06T17:37:27.320Z,74.70
2023-03-06T17:39:55.554Z,74.40
2023-03-06T17:42:22.373Z,75.00
2023-03-06T17:44:51.204Z,75.50
2023-03-06T17:47:18.126Z,75.60
2023-03-06T17:49:45.189Z,75.30
2023-03-06T17:52:12.003Z,75.50
2023-03-06T17:54:38.890Z,75.30
2023-03-06T17:57:05.903Z,75.40
2023-03-06T17:59:36.599Z,75.60
2023-03-06T18:02:03.669Z,76.00
2023-03-06T18:04:30.705Z,76.00
2023-03-06T18:06:58.345Z,76.00
2023-03-06T18:09:25.219Z,76.10
2023-03-06T18:11:52.018Z,76.10
2023-03-06T18:14:18.981Z,75.90
2023-03-06T18:16:45.838Z,76.10
2023-03-06T18:19:12.937Z,75.60
2023-03-06T18:21:40.309Z,75.60
2023-03-06T18:24:07.713Z,75.80
2023-03-06T18:26:34.890Z,76.00
2023-03-06T18:29:04.599Z,75.70
2023-03-06T18:31:34.469Z,75.50
2023-03-06T18:34:04.634Z,75.60
2023-03-06T18:36:35.380Z,75.50
2023-03-06T18:39:04.012Z,75.30
2023-03-06T18:41:32.093Z,75.10
2023-03-06T18:44:00.696Z,75.40
2023-03-06T18:46:33.037Z,76.00
2023-03-06T18:49:00.222Z,76.00
2023-03-06T18:51:27.209Z,76.30
2023-03-06T18:53:58.071Z,76.10
2023-03-06T18:56:25.213Z,76.10
2023-03-06T18:58:52.827Z,76.00
2023-03-06T19:01:20.357Z,76.10
2023-03-06T19:03:47.297Z,76.40
2023-03-06T19:06:16.957Z,76.20
2023-03-06T19:08:43.841Z,76.30
2023-03-06T19:11:13.601Z,76.10
2023-03-06T19:13:40.860Z,76.30
2023-03-06T19:16:08.092Z,76.70
2023-03-06T19:18:35.288Z,76.70
2023-03-06T19:21:14.345Z,77.30
2023-03-06T19:23:42.210Z,76.80
2023-03-06T19:26:09.917Z,77.10
2023-03-06T19:28:38.754Z,77.10
2023-03-06T19:31:10.652Z,77.30
2023-03-06T19:33:38.083Z,77.00
2023-03-06T19:36:07.443Z,77.10
2023-03-06T19:38:34.234Z,77.30
2023-03-06T19:41:01.076Z,77.70
2023-03-06T19:43:28.904Z,77.60
2023-03-06T19:45:56.918Z,77.80
2023-03-06T19:48:24.204Z,78.20
2023-03-06T19:50:51.070Z,78.10
2023-03-06T19:53:17.952Z,78.00
2023-03-06T19:55:44.801Z,78.60
2023-03-06T19:58:11.705Z,78.20
2023-03-06T20:00:41.505Z,78.50
2023-03-06T20:03:08.427Z,78.90
2023-03-06T20:05:35.301Z,78.30
2023-03-06T20:08:02.180Z,78.40
2023-03-06T20:10:29.062Z,78.60
2023-03-06T20:12:56.002Z,78.50
2023-03-06T20:15:23.376Z,78.60
2023-03-06T20:17:50.369Z,78.90
2023-03-06T20:20:20.496Z,78.70
2023-03-06T20:22:47.419Z,78.20
2023-03-06T20:25:16.137Z,78.20
2023-03-06T20:27:45.972Z,78.30
2023-03-06T20:30:13.016Z,78.40
2023-03-06T20:32:39.854Z,78.60
2023-03-06T20:35:07.326Z,78.60
2023-03-06T20:37:34.159Z,78.50
2023-03-06T20:40:01.012Z,78.20
2023-03-06T20:42:27.912Z,79.00
2023-03-06T20:44:54.757Z,79.00
2023-03-06T20:47:21.619Z,79.20
2023-03-06T20:49:48.498Z,79.40
2023-03-06T20:52:19.085Z,79.90
2023-03-06T20:54:46.307Z,79.70
2023-03-06T20:57:13.292Z,79.70
2023-03-06T20:59:40.228Z,79.80
2023-03-06T21:02:07.177Z,79.80
2023-03-06T21:04:34.249Z,79.90
2023-03-06T21:07:01.840Z,79.90
2023-03-06T21:09:28.782Z,79.80
2023-03-06T21:11:56.561Z,79.90
2023-03-06T21:14:23.353Z,79.80
2023-03-06T21:16:50.590Z,79.90
2023-03-06T21:19:17.474Z,80.20
2023-03-06T21:21:44.509Z,79.90
2023-03-06T21:24:11.456Z,80.10
2023-03-06T21:26:38.716Z,80.10
2023-03-06T21:29:06.089Z,80.40
2023-03-06T21:31:33.588Z,80.20
2023-03-06T21:34:05.029Z,80.40
2023-03-06T21:36:32.945Z,80.70
2023-03-06T21:39:01.108Z,80.60
2023-03-06T21:41:30.672Z,80.50
2023-03-06T21:43:59.547Z,80.60
2023-03-06T21:46:27.460Z,80.70
2023-03-06T21:48:55.041Z,80.80
2023-03-06T21:51:25.850Z,80.80
2023-03-06T21:53:54.234Z,80.70
2023-03-06T21:56:23.845Z,80.30
2023-03-06T21:58:50.678Z,80.20
2023-03-06T22:01:20.070Z,80.40
2023-03-06T22:03:47.333Z,80.50
2023-03-06T22:06:17.396Z,80.20
2023-03-06T22:08:44.893Z,80.30
2023-03-06T22:11:14.456Z,80.00
2023-03-06T22:13:42.270Z,80.00
2023-03-06T22:16:09.521Z,80.30
2023-03-06T22:18:37.187Z,80.30
2023-03-06T22:21:09.732Z,80.60
2023-03-06T22:23:36.921Z,80.70
2023-03-06T22:26:06.078Z,81.00
2023-03-06T22:28:33.177Z,80.80
2023-03-06T22:31:10.080Z,81.10
2023-03-06T22:33:37.374Z,81.10
2023-03-06T22:36:10.690Z,81.20
2023-03-06T22:38:44.269Z,81.20
2023-03-06T22:41:12.258Z,81.20
2023-03-06T22:43:39.251Z,81.10
2023-03-06T22:46:12.109Z,80.90
2023-03-06T22:48:39.310Z,81.00
2023-03-06T22:51:09.384Z,81.10
2023-03-06T22:53:36.852Z,81.20
2023-03-06T22:56:05.851Z,81.20
2023-03-06T22:58:35.700Z,81.20
2023-03-06T23:01:33.034Z,81.30
2023-03-06T23:04:02.515Z,80.70
2023-03-06T23:06:36.997Z,81.30
2023-03-06T23:09:14.778Z,81.30
2023-03-06T23:11:42.015Z,81.50
2023-03-06T23:14:12.167Z,81.40
2023-03-06T23:16:39.548Z,81.60
2023-03-06T23:19:06.531Z,81.70
2023-03-06T23:21:34.566Z,81.70
2023-03-06T23:24:02.300Z,81.60
2023-03-06T23:26:31.292Z,81.80
2023-03-06T23:28:58.279Z,81.80
2023-03-06T23:31:29.213Z,81.80
2023-03-06T23:34:02.818Z,81.60
2023-03-06T23:36:31.404Z,81.60
2023-03-06T23:38:58.807Z,81.80
2023-03-06T23:41:25.958Z,81.70
2023-03-06T23:43:55.067Z,81.90
2023-03-06T23:46:22.449Z,81.90
2023-03-06T23:48:49.513Z,81.80
2023-03-06T23:51:21.891Z,81.70
2023-03-06T23:53:54.430Z,81.70
2023-03-06T23:56:21.368Z,82.00
2023-03-06T23:58:48.336Z,82.20
